createdAt,value
2023-05-24T00:01:38.910Z,100.00
2023-05-24T00:04:12.022Z,100.00
2023-05-24T00:06:43.628Z,100.00
2023-05-24T00:09:13.713Z,100.00
2023-05-24T00:11:48.013Z,100.00
2023-05-24T00:14:22.304Z,100.00
2023-05-24T00:16:52.463Z,100.00
2023-05-24T00:19:23.216Z,100.00
2023-05-24T00:21:53.760Z,100.00
2023-05-24T00:24:22.675Z,100.00
2023-05-24T00:27:04.997Z,100.00
2023-05-24T00:29:38.043Z,100.00
2023-05-24T00:32:08.781Z,100.00
2023-05-24T00:35:01.564Z,100.00
2023-05-24T00:37:30.723Z,100.00
2023-05-24T00:40:02.517Z,100.00
2023-05-24T00:42:34.397Z,100.00
2023-05-24T00:45:03.058Z,100.00
2023-05-24T00:47:32.022Z,100.00
2023-05-24T00:50:06.489Z,100.00
2023-05-24T00:52:36.297Z,100.00
2023-05-24T00:55:06.774Z,100.00
2023-05-24T00:57:40.030Z,100.00
2023-05-24T01:00:14.530Z,100.00
2023-05-24T01:02:53.551Z,100.00
2023-05-24T01:05:25.600Z,100.00
2023-05-24T01:08:12.474Z,100.00
2023-05-24T01:10:53.424Z,100.00
2023-05-24T01:13:36.241Z,100.00
2023-05-24T01:16:13.074Z,100.00
2023-05-24T01:18:48.351Z,100.00
2023-05-24T01:21:49.702Z,100.00
2023-05-24T01:24:32.227Z,100.00
2023-05-24T01:27:12.287Z,100.00
2023-05-24T01:29:42.866Z,100.00
2023-05-24T01:32:12.300Z,100.00
2023-05-24T01:34:41.115Z,100.00
2023-05-24T01:37:10.324Z,100.00
2023-05-24T01:39:39.891Z,100.00
2023-05-24T01:42:26.201Z,100.00
2023-05-24T01:48:08.450Z,100.00
2023-05-24T01:50:45.629Z,100.00
2023-05-24T01:53:19.506Z,100.00
2023-05-24T01:55:53.602Z,100.00
2023-05-24T01:58:31.353Z,100.00
2023-05-24T02:01:03.517Z,100.00
2023-05-24T02:03:38.205Z,100.00
2023-05-24T02:06:11.053Z,100.00
2023-05-24T02:08:56.362Z,100.00
2023-05-24T02:11:24.950Z,100.00
2023-05-24T02:13:55.450Z,100.00
2023-05-24T02:16:27.692Z,100.00
2023-05-24T02:18:58.227Z,100.00
2023-05-24T02:21:28.304Z,100.00
2023-05-24T02:23:58.341Z,100.00
2023-05-24T02:26:28.562Z,100.00
2023-05-24T02:28:58.837Z,100.00
2023-05-24T02:31:28.948Z,100.00
2023-05-24T02:33:58.469Z,100.00
2023-05-24T02:36:28.891Z,100.00
2023-05-24T02:38:58.838Z,100.00
2023-05-24T02:41:28.268Z,100.00
2023-05-24T02:43:58.080Z,100.00
2023-05-24T02:46:26.855Z,100.00
2023-05-24T02:48:56.072Z,100.00
2023-05-24T02:51:26.459Z,100.00
2023-05-24T02:53:55.674Z,100.00
2023-05-24T02:56:28.063Z,100.00
2023-05-24T02:59:00.242Z,100.00
2023-05-24T03:01:30.108Z,100.00
2023-05-24T03:03:59.786Z,100.00
2023-05-24T03:06:31.723Z,100.00
2023-05-24T03:09:00.504Z,100.00
2023-05-24T03:11:29.997Z,100.00
2023-05-24T03:14:00.853Z,100.00
2023-05-24T03:16:29.571Z,100.00
2023-05-24T03:19:00.051Z,100.00
2023-05-24T03:21:29.814Z,100.00
2023-05-24T03:23:58.953Z,100.00
2023-05-24T03:26:28.662Z,100.00
2023-05-24T03:29:01.008Z,100.00
2023-05-24T03:31:30.857Z,100.00
2023-05-24T03:33:59.547Z,100.00
2023-05-24T03:36:29.899Z,100.00
2023-05-24T03:39:04.868Z,100.00
2023-05-24T03:41:33.892Z,100.00
2023-05-24T03:44:05.988Z,100.00
2023-05-24T03:46:36.919Z,100.00
2023-05-24T03:49:06.406Z,100.00
2023-05-24T03:51:35.108Z,100.00
2023-05-24T03:54:04.698Z,100.00
2023-05-24T03:56:33.553Z,100.00
2023-05-24T03:59:04.419Z,100.00
2023-05-24T04:01:36.848Z,100.00
2023-05-24T04:04:06.798Z,100.00
2023-05-24T04:06:38.261Z,100.00
2023-05-24T04:09:15.257Z,100.00
2023-05-24T04:11:43.928Z,100.00
2023-05-24T04:14:17.217Z,100.00
2023-05-24T04:16:50.774Z,100.00
2023-05-24T04:22:02.642Z,100.00
2023-05-24T04:24:31.240Z,100.00
2023-05-24T04:27:01.617Z,100.00
2023-05-24T04:29:33.407Z,100.00
2023-05-24T04:34:47.670Z,100.00
2023-05-24T04:37:17.372Z,100.00
2023-05-24T04:39:47.268Z,100.00
2023-05-24T04:42:18.518Z,100.00
2023-05-24T04:44:47.286Z,100.00
2023-05-24T04:47:19.781Z,100.00
2023-05-24T04:49:48.673Z,100.00
2023-05-24T04:55:06.748Z,100.00
2023-05-24T04:57:35.540Z,100.00
2023-05-24T05:00:09.509Z,100.00
2023-05-24T05:02:43.386Z,100.00
2023-05-24T05:05:13.270Z,100.00
2023-05-24T05:07:42.243Z,100.00
2023-05-24T05:10:15.856Z,100.00
2023-05-24T05:12:52.130Z,100.00
2023-05-24T05:15:24.495Z,100.00
2023-05-24T05:17:59.426Z,100.00
2023-05-24T05:20:29.318Z,100.00
2023-05-24T05:23:03.336Z,100.00
2023-05-24T05:25:32.386Z,100.00
2023-05-24T05:28:01.109Z,100.00
2023-05-24T05:30:36.040Z,100.00
2023-05-24T05:33:12.392Z,100.00
2023-05-24T05:35:42.390Z,100.00
2023-05-24T05:38:17.367Z,100.00
2023-05-24T05:40:48.596Z,100.00
2023-05-24T05:43:22.032Z,100.00
2023-05-24T05:45:50.524Z,100.00
2023-05-24T05:48:34.923Z,100.00
2023-05-24T05:51:04.240Z,100.00
2023-05-24T05:53:36.261Z,100.00
2023-05-24T05:56:07.239Z,100.00
2023-05-24T05:58:39.094Z,100.00
2023-05-24T06:01:08.928Z,100.00
2023-05-24T06:03:42.777Z,100.00
2023-05-24T06:09:11.803Z,100.00
2023-05-24T06:11:45.216Z,100.00
2023-05-24T06:17:11.530Z,100.00
2023-05-24T06:19:41.964Z,100.00
2023-05-24T06:22:11.484Z,100.00
2023-05-24T06:24:49.559Z,100.00
2023-05-24T06:30:31.470Z,100.00
2023-05-24T06:33:03.578Z,100.00
2023-05-24T06:35:41.244Z,100.00
2023-05-24T06:41:03.931Z,100.00
2023-05-24T06:43:41.336Z,100.00
2023-05-24T06:49:09.778Z,100.00
2023-05-24T06:55:27.059Z,100.00
2023-05-24T07:01:06.151Z,100.00
2023-05-24T07:06:33.935Z,100.00
2023-05-24T07:09:25.066Z,100.00
2023-05-24T07:11:54.374Z,100.00
2023-05-24T07:14:26.247Z,100.00
2023-05-24T07:17:09.022Z,100.00
2023-05-24T07:22:27.017Z,100.00
2023-05-24T07:26:01.566Z,100.00
2023-05-24T07:32:30.757Z,100.00
2023-05-24T07:38:04.722Z,100.00
2023-05-24T07:49:38.359Z,100.00
2023-05-24T07:58:18.473Z,100.00
2023-05-24T08:00:50.922Z,100.00
2023-05-24T08:03:21.380Z,100.00
2023-05-24T08:05:53.500Z,100.00
2023-05-24T08:14:03.718Z,100.00
2023-05-24T08:16:38.158Z,100.00
2023-05-24T08:19:08.554Z,100.00
2023-05-24T08:21:42.251Z,100.00
2023-05-24T08:24:11.435Z,100.00
2023-05-24T08:26:40.541Z,100.00
2023-05-24T08:29:09.391Z,100.00
2023-05-24T08:31:38.781Z,100.00
2023-05-24T08:34:08.714Z,100.00
2023-05-24T08:36:44.260Z,100.00
2023-05-24T08:39:13.909Z,100.00
2023-05-24T08:41:43.628Z,100.00
2023-05-24T08:44:17.677Z,100.00
2023-05-24T08:47:01.048Z,100.00
2023-05-24T08:49:52.033Z,100.00
2023-05-24T08:52:24.757Z,100.00
2023-05-24T08:57:41.755Z,100.00
2023-05-24T09:09:06.532Z,100.00
2023-05-24T09:11:50.964Z,100.00
2023-05-24T09:14:20.799Z,100.00
2023-05-24T09:16:51.909Z,100.00
2023-05-24T09:19:22.830Z,100.00
2023-05-24T09:22:10.969Z,100.00
2023-05-24T09:24:55.384Z,100.00
2023-05-24T09:27:25.361Z,100.00
2023-05-24T09:29:57.817Z,100.00
2023-05-24T09:32:26.890Z,100.00
2023-05-24T09:35:01.140Z,100.00
2023-05-24T09:41:13.908Z,100.00
2023-05-24T09:43:55.107Z,100.00
2023-05-24T09:46:25.694Z,100.00
2023-05-24T09:57:36.062Z,100.00
2023-05-24T10:00:18.685Z,100.00
2023-05-24T10:02:53.142Z,100.00
2023-05-24T10:05:23.415Z,100.00
2023-05-24T10:07:54.358Z,100.00
2023-05-24T10:13:09.183Z,100.00
2023-05-24T10:15:43.173Z,100.00
2023-05-24T10:18:14.331Z,100.00
2023-05-24T10:20:44.046Z,100.00
2023-05-24T10:23:21.585Z,100.00
2023-05-24T10:25:58.495Z,100.00
2023-05-24T10:28:30.978Z,100.00
2023-05-24T10:31:14.343Z,100.00
2023-05-24T10:33:49.914Z,100.00
2023-05-24T10:36:26.370Z,100.00
2023-05-24T10:38:56.715Z,100.00
2023-05-24T10:41:29.120Z,100.00
2023-05-24T10:44:08.625Z,100.00
2023-05-24T10:47:27.744Z,100.00
2023-05-24T10:50:00.044Z,100.00
2023-05-24T10:52:46.480Z,100.00
2023-05-24T10:55:16.735Z,100.00
2023-05-24T10:57:48.116Z,100.00
2023-05-24T11:03:15.162Z,100.00
2023-05-24T11:08:55.546Z,100.00
2023-05-24T11:11:35.822Z,100.00
2023-05-24T11:17:14.560Z,100.00
2023-05-24T11:20:00.604Z,100.00
2023-05-24T11:22:34.353Z,100.00
2023-05-24T11:25:14.738Z,100.00
2023-05-24T11:28:00.841Z,100.00
2023-05-24T11:30:36.964Z,100.00
2023-05-24T11:33:07.471Z,100.00
2023-05-24T11:35:56.921Z,100.00
2023-05-24T11:38:31.105Z,100.00
2023-05-24T11:41:18.412Z,100.00
2023-05-24T11:43:48.880Z,100.00
2023-05-24T11:49:07.171Z,100.00
2023-05-24T11:57:28.881Z,100.00
2023-05-24T11:59:59.132Z,97.82
2023-05-24T12:02:40.188Z,100.00
2023-05-24T12:05:26.777Z,99.91
2023-05-24T12:08:30.258Z,100.00
2023-05-24T12:11:02.158Z,88.47
2023-05-24T12:13:35.929Z,99.73
2023-05-24T12:16:12.806Z,100.00
2023-05-24T12:21:33.720Z,100.00
2023-05-24T12:24:21.971Z,100.00
2023-05-24T12:26:51.765Z,95.34
2023-05-24T12:29:24.146Z,93.77
2023-05-24T12:31:54.124Z,95.40
2023-05-24T12:34:42.558Z,93.94
2023-05-24T12:37:37.847Z,92.63
2023-05-24T12:40:28.597Z,91.49
2023-05-24T12:43:00.449Z,92.28
2023-05-24T12:48:20.982Z,98.45
2023-05-24T12:50:51.587Z,92.04
2023-05-24T12:53:25.109Z,97.64
2023-05-24T12:56:12.769Z,95.65
2023-05-24T12:58:43.643Z,96.04
2023-05-24T13:09:44.302Z,83.82
2023-05-24T13:12:30.868Z,83.33
2023-05-24T13:17:48.905Z,93.45
2023-05-24T13:23:23.097Z,82.46
2023-05-24T13:25:52.872Z,82.46
2023-05-24T13:28:25.674Z,79.03
2023-05-24T13:30:55.140Z,73.51
2023-05-24T13:33:26.697Z,72.70
2023-05-24T13:35:58.131Z,67.79
2023-05-24T13:38:41.358Z,66.18
2023-05-24T13:41:17.756Z,72.52
2023-05-24T14:10:54.281Z,61.11
2023-05-24T14:14:20.773Z,57.44
2023-05-24T14:16:22.331Z,58.46
2023-05-24T14:18:51.826Z,61.37
2023-05-24T14:21:23.809Z,62.82
2023-05-24T14:23:53.340Z,62.40
2023-05-24T14:26:24.228Z,64.36
2023-05-24T14:28:56.243Z,61.89
2023-05-24T14:31:26.188Z,62.09
2023-05-24T14:33:55.375Z,60.84
2023-05-24T14:36:39.781Z,60.28
2023-05-24T14:39:09.640Z,61.40
2023-05-24T14:41:40.861Z,59.85
2023-05-24T14:44:13.097Z,59.85
2023-05-24T14:46:47.572Z,58.97
2023-05-24T14:49:32.554Z,58.64
2023-05-24T14:52:06.730Z,63.29
2023-05-24T14:54:40.349Z,62.39
2023-05-24T14:57:10.833Z,64.52
2023-05-24T14:59:40.244Z,63.33
2023-05-24T15:02:23.066Z,63.63
2023-05-24T15:04:52.032Z,57.29
2023-05-24T15:07:23.830Z,60.29
2023-05-24T15:13:03.365Z,59.55
2023-05-24T15:25:03.353Z,56.98
2023-05-24T15:27:32.643Z,53.13
2023-05-24T15:33:04.348Z,51.09
2023-05-24T15:35:58.360Z,51.83
2023-05-24T15:49:18.210Z,54.02
2023-05-24T15:52:03.442Z,55.77
2023-05-24T15:54:34.053Z,53.36
2023-05-24T15:57:05.486Z,51.09
2023-05-24T15:59:39.679Z,53.12
2023-05-24T16:02:14.183Z,53.28
2023-05-24T16:04:59.507Z,51.91
2023-05-24T16:10:28.115Z,53.59
2023-05-24T16:13:19.549Z,52.46
2023-05-24T16:15:55.902Z,52.26
2023-05-24T16:18:27.863Z,54.69
2023-05-24T16:20:59.916Z,54.38
2023-05-24T16:23:32.818Z,52.17
2023-05-24T16:26:03.267Z,55.85
2023-05-24T16:28:45.154Z,53.89
2023-05-24T16:31:23.802Z,54.79
2023-05-24T16:33:52.678Z,57.49
2023-05-24T16:36:24.925Z,56.02
2023-05-24T16:41:51.145Z,56.37
2023-05-24T16:56:06.718Z,77.20
2023-05-24T17:01:33.532Z,84.78
2023-05-24T17:04:04.709Z,100.00
2023-05-24T17:06:34.717Z,100.00
2023-05-24T17:09:07.999Z,100.00
2023-05-24T17:11:43.785Z,100.00
2023-05-24T17:14:16.412Z,100.00
2023-05-24T17:16:52.490Z,100.00
2023-05-24T17:19:26.562Z,100.00
2023-05-24T17:21:56.512Z,100.00
2023-05-24T17:24:30.963Z,100.00
2023-05-24T17:27:05.461Z,100.00
2023-05-24T17:29:36.389Z,100.00
2023-05-24T17:32:05.478Z,100.00
2023-05-24T17:34:35.594Z,100.00
2023-05-24T17:37:05.756Z,100.00
2023-05-24T17:39:39.971Z,100.00
2023-05-24T17:42:09.846Z,100.00
2023-05-24T17:44:40.477Z,100.00
2023-05-24T17:47:10.097Z,100.00
2023-05-24T17:52:30.586Z,100.00
2023-05-24T17:55:09.420Z,100.00
2023-05-24T17:57:38.432Z,100.00
2023-05-24T18:00:10.070Z,100.00
2023-05-24T18:02:40.231Z,100.00
2023-05-24T18:08:09.004Z,100.00
2023-05-24T18:10:40.134Z,100.00
2023-05-24T18:13:11.599Z,100.00
2023-05-24T18:15:42.272Z,100.00
2023-05-24T18:18:12.771Z,100.00
2023-05-24T18:20:42.015Z,100.00
2023-05-24T18:23:15.131Z,100.00
2023-05-24T18:25:47.488Z,100.00
2023-05-24T18:28:17.389Z,100.00
2023-05-24T18:30:46.423Z,100.00
2023-05-24T18:33:16.572Z,100.00
2023-05-24T18:35:46.763Z,100.00
2023-05-24T18:38:19.764Z,100.00
2023-05-24T18:40:51.397Z,100.00
2023-05-24T18:43:20.875Z,100.00
2023-05-24T18:45:49.998Z,100.00
2023-05-24T18:48:19.817Z,100.00
2023-05-24T18:51:04.190Z,100.00
2023-05-24T18:53:44.053Z,100.00
2023-05-24T18:56:16.690Z,100.00
2023-05-24T18:58:50.092Z,100.00
2023-05-24T19:01:19.888Z,100.00
2023-05-24T19:03:50.510Z,100.00
2023-05-24T19:06:19.865Z,100.00
2023-05-24T19:08:55.929Z,100.00
2023-05-24T19:12:11.856Z,100.00
2023-05-24T19:14:57.318Z,100.00
2023-05-24T19:26:19.848Z,100.00
2023-05-24T19:28:54.592Z,100.00
2023-05-24T19:31:27.577Z,100.00
2023-05-24T19:34:02.392Z,100.00
2023-05-24T19:36:33.324Z,100.00
2023-05-24T19:39:04.001Z,100.00
2023-05-24T19:41:41.624Z,100.00
2023-05-24T19:44:18.825Z,100.00
2023-05-24T19:46:56.812Z,100.00
2023-05-24T19:49:26.331Z,100.00
2023-05-24T19:51:57.434Z,100.00
2023-05-24T19:54:26.788Z,100.00
2023-05-24T19:57:05.497Z,100.00
2023-05-24T19:59:35.436Z,100.00
2023-05-24T20:02:21.301Z,100.00
2023-05-24T20:07:33.313Z,100.00
2023-05-24T20:10:02.554Z,100.00
2023-05-24T20:12:34.633Z,100.00
2023-05-24T20:15:05.616Z,100.00
2023-05-24T20:18:00.298Z,100.00
2023-05-24T20:20:29.747Z,100.00
2023-05-24T20:23:13.887Z,100.00
2023-05-24T20:28:34.576Z,100.00
2023-05-24T20:31:12.912Z,100.00
2023-05-24T20:33:46.838Z,100.00
2023-05-24T20:36:20.491Z,100.00
2023-05-24T20:38:51.538Z,100.00
2023-05-24T20:41:23.126Z,100.00
2023-05-24T20:43:52.807Z,100.00
2023-05-24T20:46:22.873Z,100.00
2023-05-24T20:49:08.195Z,100.00
2023-05-24T20:51:40.385Z,100.00
2023-05-24T20:54:18.754Z,100.00
2023-05-24T20:56:54.130Z,100.00
2023-05-24T20:59:32.314Z,100.00
2023-05-24T21:02:06.651Z,100.00
2023-05-24T21:13:40.018Z,100.00
2023-05-24T21:16:47.469Z,100.00
2023-05-24T21:23:31.208Z,100.00
2023-05-24T21:26:24.301Z,100.00
2023-05-24T21:32:14.037Z,100.00
2023-05-24T21:35:07.239Z,100.00
2023-05-24T21:37:51.167Z,100.00
2023-05-24T21:40:37.494Z,100.00
2023-05-24T21:46:38.001Z,100.00
2023-05-24T21:49:13.810Z,100.00
2023-05-24T21:52:38.496Z,100.00
2023-05-24T21:55:43.379Z,100.00
2023-05-24T22:01:10.881Z,100.00
2023-05-24T22:06:55.530Z,100.00
2023-05-24T22:09:52.203Z,100.00
2023-05-24T22:12:28.517Z,100.00
2023-05-24T22:15:15.184Z,100.00
2023-05-24T22:17:51.036Z,100.00
2023-05-24T22:20:29.013Z,100.00
2023-05-24T22:23:01.148Z,100.00
2023-05-24T22:25:35.713Z,100.00
2023-05-24T22:28:05.616Z,100.00
2023-05-24T22:30:37.226Z,100.00
2023-05-24T22:33:08.221Z,100.00
2023-05-24T22:35:39.473Z,100.00
2023-05-24T22:38:09.075Z,100.00
2023-05-24T22:40:42.370Z,100.00
2023-05-24T22:43:18.758Z,100.00
2023-05-24T22:45:49.923Z,100.00
2023-05-24T22:48:22.495Z,100.00
2023-05-24T22:51:00.901Z,100.00
2023-05-24T22:53:31.493Z,100.00
2023-05-24T22:56:04.927Z,100.00
2023-05-24T22:58:35.330Z,100.00
2023-05-24T23:01:05.491Z,100.00
2023-05-24T23:03:40.296Z,100.00
2023-05-24T23:06:12.341Z,100.00
2023-05-24T23:08:44.390Z,100.00
2023-05-24T23:11:32.890Z,100.00
2023-05-24T23:14:04.378Z,100.00
2023-05-24T23:16:35.051Z,100.00
2023-05-24T23:22:07.721Z,100.00
2023-05-24T23:24:38.244Z,100.00
2023-05-24T23:27:12.610Z,100.00
2023-05-24T23:29:42.678Z,100.00
2023-05-24T23:32:14.454Z,100.00
2023-05-24T23:34:44.072Z,100.00
2023-05-24T23:37:14.671Z,100.00
2023-05-24T23:39:44.689Z,100.00
2023-05-24T23:42:21.797Z,100.00
2023-05-24T23:45:00.685Z,100.00
2023-05-24T23:47:30.665Z,100.00
2023-05-24T23:49:59.808Z,100.00
2023-05-24T23:52:29.671Z,100.00
2023-05-24T23:54:59.540Z,100.00
2023-05-24T23:57:35.099Z,100.00
